Terminal Aerodrome Forecast
Issued by NWS Central Illinois

Home | Current Version | Previous Version | Text Only | Print | Product List | Glossary On
Versions: 1 2 3 4 5 6 7 8 9 10 11 12 13 14 15 16 17 18 19 20 21
837
FTUS43 KILX 171724
TAFSPI
TAF
KSPI 171724Z 1718/1818 16014G25KT 5SM BR OVC025
     FM172200 17014G23KT P6SM VCSH OVC015
     FM180200 18012G21KT P6SM -SHRA VCTS OVC010CB
     FM180500 18013KT 5SM -SHRA VCTS OVC008CB
     FM181100 23007KT 2SM SHRA BR OVC008
     FM181400 30014KT 4SM SHRA BR OVC008
     FM181600 32019G29KT P6SM SHRA OVC010=

USA.gov is the U.S. government's official web portal to all federal, state and local government web resources and services.